sensor_id;sensor_type;location;lat;lon;timestamp;temperature;humidity
6164;DHT22;3114;48.362;10.994;2023-02-11T00:00:15;2.00;99.90
6164;DHT22;3114;48.362;10.994;2023-02-11T00:02:42;1.90;99.90
6164;DHT22;3114;48.362;10.994;2023-02-11T00:05:09;2.10;99.90
6164;DHT22;3114;48.362;10.994;2023-02-11T00:07:36;3.10;99.90
6164;DHT22;3114;48.362;10.994;2023-02-11T00:10:04;2.50;99.90
6164;DHT22;3114;48.362;10.994;2023-02-11T00:12:33;2.50;99.90
6164;DHT22;3114;48.362;10.994;2023-02-11T00:15:00;2.50;99.90
6164;DHT22;3114;48.362;10.994;2023-02-11T00:17:27;2.40;99.90
6164;DHT22;3114;48.362;10.994;2023-02-11T00:19:54;2.50;99.90
6164;DHT22;3114;48.362;10.994;2023-02-11T00:22:21;2.40;99.90
6164;DHT22;3114;48.362;10.994;2023-02-11T00:24:48;2.40;99.90
6164;DHT22;3114;48.362;10.994;2023-02-11T00:27:15;2.50;99.90
6164;DHT22;3114;48.362;10.994;2023-02-11T00:29:43;2.60;99.90
6164;DHT22;3114;48.362;10.994;2023-02-11T00:32:10;2.60;99.90
6164;DHT22;3114;48.362;10.994;2023-02-11T00:34:37;2.50;99.90
6164;DHT22;3114;48.362;10.994;2023-02-11T00:37:04;2.20;99.90
6164;DHT22;3114;48.362;10.994;2023-02-11T00:39:31;1.70;99.90
6164;DHT22;3114;48.362;10.994;2023-02-11T00:41:58;1.60;99.90
6164;DHT22;3114;48.362;10.994;2023-02-11T00:44:25;1.40;99.90
6164;DHT22;3114;48.362;10.994;2023-02-11T00:46:53;1.30;99.90
6164;DHT22;3114;48.362;10.994;2023-02-11T00:49:20;1.10;99.90
6164;DHT22;3114;48.362;10.994;2023-02-11T00:51:47;1.10;99.90
6164;DHT22;3114;48.362;10.994;2023-02-11T00:54:14;1.00;99.90
6164;DHT22;3114;48.362;10.994;2023-02-11T00:56:41;1.10;99.90
6164;DHT22;3114;48.362;10.994;2023-02-11T00:59:07;1.20;99.90
6164;DHT22;3114;48.362;10.994;2023-02-11T01:01:34;1.20;99.90
6164;DHT22;3114;48.362;10.994;2023-02-11T01:04:03;1.30;99.90
6164;DHT22;3114;48.362;10.994;2023-02-11T01:06:30;1.20;99.90
6164;DHT22;3114;48.362;10.994;2023-02-11T01:08:57;1.10;99.90
6164;DHT22;3114;48.362;10.994;2023-02-11T01:11:23;1.10;99.90
6164;DHT22;3114;48.362;10.994;2023-02-11T01:16:18;1.20;99.90
6164;DHT22;3114;48.362;10.994;2023-02-11T01:18:46;1.20;99.90
6164;DHT22;3114;48.362;10.994;2023-02-11T01:21:14;1.10;99.90
6164;DHT22;3114;48.362;10.994;2023-02-11T01:23:41;1.10;99.90
6164;DHT22;3114;48.362;10.994;2023-02-11T01:26:08;0.90;99.90
6164;DHT22;3114;48.362;10.994;2023-02-11T01:28:35;0.70;99.90
6164;DHT22;3114;48.362;10.994;2023-02-11T01:31:02;0.80;99.90
6164;DHT22;3114;48.362;10.994;2023-02-11T01:33:29;0.80;99.90
6164;DHT22;3114;48.362;10.994;2023-02-11T01:35:59;0.80;99.90
6164;DHT22;3114;48.362;10.994;2023-02-11T01:38:29;0.90;99.90
6164;DHT22;3114;48.362;10.994;2023-02-11T01:40:58;0.90;99.90
6164;DHT22;3114;48.362;10.994;2023-02-11T01:43:28;0.70;99.90
6164;DHT22;3114;48.362;10.994;2023-02-11T01:46:03;0.80;99.90
6164;DHT22;3114;48.362;10.994;2023-02-11T01:48:34;0.80;99.90
6164;DHT22;3114;48.362;10.994;2023-02-11T01:51:05;0.80;99.90
6164;DHT22;3114;48.362;10.994;2023-02-11T01:53:36;0.90;99.90
6164;DHT22;3114;48.362;10.994;2023-02-11T01:56:24;0.80;99.90
6164;DHT22;3114;48.362;10.994;2023-02-11T01:59:12;0.60;99.90
6164;DHT22;3114;48.362;10.994;2023-02-11T02:01:42;0.50;99.90
6164;DHT22;3114;48.362;10.994;2023-02-11T02:04:10;0.70;99.90
6164;DHT22;3114;48.362;10.994;2023-02-11T02:06:46;0.80;99.90
6164;DHT22;3114;48.362;10.994;2023-02-11T02:09:19;0.70;99.90
6164;DHT22;3114;48.362;10.994;2023-02-11T02:11:47;0.70;99.90
6164;DHT22;3114;48.362;10.994;2023-02-11T02:14:15;0.70;99.90
6164;DHT22;3114;48.362;10.994;2023-02-11T02:16:42;0.60;99.90
6164;DHT22;3114;48.362;10.994;2023-02-11T02:19:26;0.50;99.90
6164;DHT22;3114;48.362;10.994;2023-02-11T02:27:51;0.70;99.90
6164;DHT22;3114;48.362;10.994;2023-02-11T02:30:59;0.80;99.90
6164;DHT22;3114;48.362;10.994;2023-02-11T02:33:38;0.50;99.90
6164;DHT22;3114;48.362;10.994;2023-02-11T02:36:15;0.30;99.90
6164;DHT22;3114;48.362;10.994;2023-02-11T02:38:49;0.60;99.90
6164;DHT22;3114;48.362;10.994;2023-02-11T02:41:18;0.40;99.90
6164;DHT22;3114;48.362;10.994;2023-02-11T02:43:48;0.50;99.90
6164;DHT22;3114;48.362;10.994;2023-02-11T02:46:18;0.10;99.90
6164;DHT22;3114;48.362;10.994;2023-02-11T02:48:48;0.30;99.90
6164;DHT22;3114;48.362;10.994;2023-02-11T02:57:19;0.40;99.90
6164;DHT22;3114;48.362;10.994;2023-02-11T03:00:10;0.60;99.90
6164;DHT22;3114;48.362;10.994;2023-02-11T03:02:46;0.40;99.90
6164;DHT22;3114;48.362;10.994;2023-02-11T03:05:22;0.50;99.90
6164;DHT22;3114;48.362;10.994;2023-02-11T03:07:57;0.30;99.90
6164;DHT22;3114;48.362;10.994;2023-02-11T03:10:27;0.30;99.90
6164;DHT22;3114;48.362;10.994;2023-02-11T03:12:56;0.10;99.90
6164;DHT22;3114;48.362;10.994;2023-02-11T03:15:26;0.00;99.90
6164;DHT22;3114;48.362;10.994;2023-02-11T03:17:57;0.10;99.90
6164;DHT22;3114;48.362;10.994;2023-02-11T03:20:28;0.00;99.90
6164;DHT22;3114;48.362;10.994;2023-02-11T03:25:28;0.00;99.90
6164;DHT22;3114;48.362;10.994;2023-02-11T03:28:00;0.10;99.90
6164;DHT22;3114;48.362;10.994;2023-02-11T03:30:32;0.30;99.90
6164;DHT22;3114;48.362;10.994;2023-02-11T03:33:07;0.10;99.90
6164;DHT22;3114;48.362;10.994;2023-02-11T03:35:40;-0.10;99.90
6164;DHT22;3114;48.362;10.994;2023-02-11T03:38:10;0.10;99.90
6164;DHT22;3114;48.362;10.994;2023-02-11T03:40:40;-0.10;99.90
6164;DHT22;3114;48.362;10.994;2023-02-11T03:43:12;-0.10;99.90
6164;DHT22;3114;48.362;10.994;2023-02-11T03:45:43;-0.10;99.90
6164;DHT22;3114;48.362;10.994;2023-02-11T03:48:14;-0.10;99.90
6164;DHT22;3114;48.362;10.994;2023-02-11T03:50:44;-0.20;99.90
6164;DHT22;3114;48.362;10.994;2023-02-11T03:53:13;-0.10;99.90
6164;DHT22;3114;48.362;10.994;2023-02-11T03:55:40;-0.20;99.90
6164;DHT22;3114;48.362;10.994;2023-02-11T03:58:08;-0.20;99.90
6164;DHT22;3114;48.362;10.994;2023-02-11T04:00:36;-0.20;99.90
6164;DHT22;3114;48.362;10.994;2023-02-11T04:03:04;-0.20;99.90
6164;DHT22;3114;48.362;10.994;2023-02-11T04:05:31;-0.10;99.90
6164;DHT22;3114;48.362;10.994;2023-02-11T04:08:00;0.00;99.90
6164;DHT22;3114;48.362;10.994;2023-02-11T04:10:27;0.10;99.90
6164;DHT22;3114;48.362;10.994;2023-02-11T04:12:54;0.00;99.90
6164;DHT22;3114;48.362;10.994;2023-02-11T04:15:21;0.00;99.90
6164;DHT22;3114;48.362;10.994;2023-02-11T04:17:48;-0.10;99.90
6164;DHT22;3114;48.362;10.994;2023-02-11T04:22:42;0.10;99.90
6164;DHT22;3114;48.362;10.994;2023-02-11T04:25:10;0.20;99.90
6164;DHT22;3114;48.362;10.994;2023-02-11T04:27:37;0.20;99.90
6164;DHT22;3114;48.362;10.994;2023-02-11T04:30:05;0.10;99.90
6164;DHT22;3114;48.362;10.994;2023-02-11T04:32:32;0.30;99.90
6164;DHT22;3114;48.362;10.994;2023-02-11T04:34:59;0.40;99.90
6164;DHT22;3114;48.362;10.994;2023-02-11T04:37:27;0.50;99.90
6164;DHT22;3114;48.362;10.994;2023-02-11T04:39:54;0.50;99.90
6164;DHT22;3114;48.362;10.994;2023-02-11T04:42:22;0.80;99.90
6164;DHT22;3114;48.362;10.994;2023-02-11T04:44:49;1.00;99.90
6164;DHT22;3114;48.362;10.994;2023-02-11T04:47:16;1.30;99.90
6164;DHT22;3114;48.362;10.994;2023-02-11T04:49:43;1.50;99.90
6164;DHT22;3114;48.362;10.994;2023-02-11T04:52:10;1.60;99.90
6164;DHT22;3114;48.362;10.994;2023-02-11T04:54:37;1.60;99.90
6164;DHT22;3114;48.362;10.994;2023-02-11T04:57:05;1.50;99.90
6164;DHT22;3114;48.362;10.994;2023-02-11T04:59:33;1.60;99.90
6164;DHT22;3114;48.362;10.994;2023-02-11T05:02:00;1.40;99.90
6164;DHT22;3114;48.362;10.994;2023-02-11T05:04:26;1.10;99.90
6164;DHT22;3114;48.362;10.994;2023-02-11T05:06:53;1.10;99.90
6164;DHT22;3114;48.362;10.994;2023-02-11T05:09:20;1.40;99.90
6164;DHT22;3114;48.362;10.994;2023-02-11T05:11:47;1.50;99.90
6164;DHT22;3114;48.362;10.994;2023-02-11T05:14:14;1.40;99.90
6164;DHT22;3114;48.362;10.994;2023-02-11T05:16:42;1.60;99.90
6164;DHT22;3114;48.362;10.994;2023-02-11T05:19:09;1.50;99.90
6164;DHT22;3114;48.362;10.994;2023-02-11T05:21:36;1.20;99.90
6164;DHT22;3114;48.362;10.994;2023-02-11T05:24:03;1.40;99.90
6164;DHT22;3114;48.362;10.994;2023-02-11T05:26:31;1.10;99.90
6164;DHT22;3114;48.362;10.994;2023-02-11T05:28:58;0.90;99.90
6164;DHT22;3114;48.362;10.994;2023-02-11T05:31:25;0.90;99.90
6164;DHT22;3114;48.362;10.994;2023-02-11T05:33:53;1.20;99.90
6164;DHT22;3114;48.362;10.994;2023-02-11T05:36:20;1.00;99.90
6164;DHT22;3114;48.362;10.994;2023-02-11T05:38:47;2.00;99.90
6164;DHT22;3114;48.362;10.994;2023-02-11T05:41:15;1.40;99.90
6164;DHT22;3114;48.362;10.994;2023-02-11T05:43:42;1.60;99.90
6164;DHT22;3114;48.362;10.994;2023-02-11T05:46:09;1.50;99.90
6164;DHT22;3114;48.362;10.994;2023-02-11T05:48:35;1.70;99.90
6164;DHT22;3114;48.362;10.994;2023-02-11T05:51:04;1.90;99.90
6164;DHT22;3114;48.362;10.994;2023-02-11T05:53:31;1.60;99.90
6164;DHT22;3114;48.362;10.994;2023-02-11T05:55:58;1.80;99.90
6164;DHT22;3114;48.362;10.994;2023-02-11T05:58:25;1.70;99.90
6164;DHT22;3114;48.362;10.994;2023-02-11T06:00:52;1.80;99.90
6164;DHT22;3114;48.362;10.994;2023-02-11T06:03:19;1.80;99.90
6164;DHT22;3114;48.362;10.994;2023-02-11T06:05:46;2.00;99.90
6164;DHT22;3114;48.362;10.994;2023-02-11T06:08:14;1.50;99.90
6164;DHT22;3114;48.362;10.994;2023-02-11T06:10:43;1.20;99.90
6164;DHT22;3114;48.362;10.994;2023-02-11T06:13:10;1.10;99.90
6164;DHT22;3114;48.362;10.994;2023-02-11T06:15:37;1.20;99.90
6164;DHT22;3114;48.362;10.994;2023-02-11T06:18:04;0.80;99.90
6164;DHT22;3114;48.362;10.994;2023-02-11T06:20:31;0.80;99.90
6164;DHT22;3114;48.362;10.994;2023-02-11T06:22:58;1.00;99.90
6164;DHT22;3114;48.362;10.994;2023-02-11T06:25:27;0.90;99.90
6164;DHT22;3114;48.362;10.994;2023-02-11T06:27:54;0.90;99.90
6164;DHT22;3114;48.362;10.994;2023-02-11T06:30:20;0.80;99.90
6164;DHT22;3114;48.362;10.994;2023-02-11T06:32:47;0.80;99.90
6164;DHT22;3114;48.362;10.994;2023-02-11T06:35:14;0.90;99.90
6164;DHT22;3114;48.362;10.994;2023-02-11T06:37:41;0.80;99.90
6164;DHT22;3114;48.362;10.994;2023-02-11T06:40:09;1.00;99.90
6164;DHT22;3114;48.362;10.994;2023-02-11T06:42:38;0.80;99.90
6164;DHT22;3114;48.362;10.994;2023-02-11T06:45:05;0.80;99.90
6164;DHT22;3114;48.362;10.994;2023-02-11T06:47:33;1.00;99.90
6164;DHT22;3114;48.362;10.994;2023-02-11T06:50:00;1.20;99.90
6164;DHT22;3114;48.362;10.994;2023-02-11T06:52:27;1.40;99.90
6164;DHT22;3114;48.362;10.994;2023-02-11T06:54:54;1.40;99.90
6164;DHT22;3114;48.362;10.994;2023-02-11T06:57:21;1.40;99.90
6164;DHT22;3114;48.362;10.994;2023-02-11T06:59:49;1.60;99.90
6164;DHT22;3114;48.362;10.994;2023-02-11T07:02:17;1.80;99.90
6164;DHT22;3114;48.362;10.994;2023-02-11T07:04:43;1.70;99.90
6164;DHT22;3114;48.362;10.994;2023-02-11T07:07:10;1.30;99.90
6164;DHT22;3114;48.362;10.994;2023-02-11T07:09:37;1.20;99.90
6164;DHT22;3114;48.362;10.994;2023-02-11T07:12:04;1.20;99.90
6164;DHT22;3114;48.362;10.994;2023-02-11T07:14:31;1.10;99.90
6164;DHT22;3114;48.362;10.994;2023-02-11T07:16:59;1.20;99.90
6164;DHT22;3114;48.362;10.994;2023-02-11T07:19:26;1.20;99.90
6164;DHT22;3114;48.362;10.994;2023-02-11T07:21:53;1.10;99.90
6164;DHT22;3114;48.362;10.994;2023-02-11T07:24:20;1.20;99.90
6164;DHT22;3114;48.362;10.994;2023-02-11T07:26:47;1.10;99.90
6164;DHT22;3114;48.362;10.994;2023-02-11T07:29:14;1.20;99.90
6164;DHT22;3114;48.362;10.994;2023-02-11T07:31:41;1.20;99.90
6164;DHT22;3114;48.362;10.994;2023-02-11T07:34:10;1.30;99.90
6164;DHT22;3114;48.362;10.994;2023-02-11T07:36:37;1.30;99.90
6164;DHT22;3114;48.362;10.994;2023-02-11T07:39:03;1.30;99.90
6164;DHT22;3114;48.362;10.994;2023-02-11T07:41:30;1.20;99.90
6164;DHT22;3114;48.362;10.994;2023-02-11T07:44:01;1.30;99.90
6164;DHT22;3114;48.362;10.994;2023-02-11T07:46:28;1.50;99.90
6164;DHT22;3114;48.362;10.994;2023-02-11T07:48:55;1.40;99.90
6164;DHT22;3114;48.362;10.994;2023-02-11T07:51:26;1.30;99.90
6164;DHT22;3114;48.362;10.994;2023-02-11T07:53:54;1.20;99.90
6164;DHT22;3114;48.362;10.994;2023-02-11T07:56:22;1.20;99.90
6164;DHT22;3114;48.362;10.994;2023-02-11T07:58:50;1.20;99.90
6164;DHT22;3114;48.362;10.994;2023-02-11T08:01:20;1.10;99.90
6164;DHT22;3114;48.362;10.994;2023-02-11T08:03:49;1.00;99.90
6164;DHT22;3114;48.362;10.994;2023-02-11T08:06:18;1.10;99.90
6164;DHT22;3114;48.362;10.994;2023-02-11T08:08:47;1.40;99.90
6164;DHT22;3114;48.362;10.994;2023-02-11T08:11:16;1.50;99.90
6164;DHT22;3114;48.362;10.994;2023-02-11T08:13:44;1.40;99.90
6164;DHT22;3114;48.362;10.994;2023-02-11T08:16:17;1.60;99.90
6164;DHT22;3114;48.362;10.994;2023-02-11T08:18:44;1.60;99.90
6164;DHT22;3114;48.362;10.994;2023-02-11T08:21:11;1.70;99.90
6164;DHT22;3114;48.362;10.994;2023-02-11T08:23:39;1.70;99.90
6164;DHT22;3114;48.362;10.994;2023-02-11T08:26:10;1.50;99.90
6164;DHT22;3114;48.362;10.994;2023-02-11T08:28:38;1.70;99.90
6164;DHT22;3114;48.362;10.994;2023-02-11T08:31:07;1.90;99.90
6164;DHT22;3114;48.362;10.994;2023-02-11T08:33:34;1.90;99.90
6164;DHT22;3114;48.362;10.994;2023-02-11T08:36:06;2.00;99.90
6164;DHT22;3114;48.362;10.994;2023-02-11T08:38:33;2.00;99.90
6164;DHT22;3114;48.362;10.994;2023-02-11T08:41:00;2.10;99.90
6164;DHT22;3114;48.362;10.994;2023-02-11T08:43:28;2.10;99.90
6164;DHT22;3114;48.362;10.994;2023-02-11T08:45:55;2.10;99.90
6164;DHT22;3114;48.362;10.994;2023-02-11T08:48:22;2.10;99.90
6164;DHT22;3114;48.362;10.994;2023-02-11T08:50:49;2.30;99.90
6164;DHT22;3114;48.362;10.994;2023-02-11T08:53:15;2.40;99.90
6164;DHT22;3114;48.362;10.994;2023-02-11T08:55:47;2.50;99.90
6164;DHT22;3114;48.362;10.994;2023-02-11T08:58:14;2.90;99.90
6164;DHT22;3114;48.362;10.994;2023-02-11T09:00:42;3.10;99.90
6164;DHT22;3114;48.362;10.994;2023-02-11T09:03:10;2.80;99.90
6164;DHT22;3114;48.362;10.994;2023-02-11T09:05:40;2.70;99.90
6164;DHT22;3114;48.362;10.994;2023-02-11T09:08:07;2.60;99.90
6164;DHT22;3114;48.362;10.994;2023-02-11T09:10:33;2.70;99.90
6164;DHT22;3114;48.362;10.994;2023-02-11T09:13:00;2.70;99.90
6164;DHT22;3114;48.362;10.994;2023-02-11T09:15:27;2.90;99.90
6164;DHT22;3114;48.362;10.994;2023-02-11T09:17:56;2.80;99.90
6164;DHT22;3114;48.362;10.994;2023-02-11T09:20:24;2.90;99.90
6164;DHT22;3114;48.362;10.994;2023-02-11T09:22:52;3.00;99.90
6164;DHT22;3114;48.362;10.994;2023-02-11T09:25:20;3.00;99.90
6164;DHT22;3114;48.362;10.994;2023-02-11T09:30:16;3.30;99.90
6164;DHT22;3114;48.362;10.994;2023-02-11T09:32:42;3.60;99.90
6164;DHT22;3114;48.362;10.994;2023-02-11T09:35:11;3.50;99.90
6164;DHT22;3114;48.362;10.994;2023-02-11T09:37:38;3.40;99.90
6164;DHT22;3114;48.362;10.994;2023-02-11T09:40:05;3.50;99.90
6164;DHT22;3114;48.362;10.994;2023-02-11T09:42:44;3.60;99.90
6164;DHT22;3114;48.362;10.994;2023-02-11T09:45:16;3.50;99.90
6164;DHT22;3114;48.362;10.994;2023-02-11T09:47:50;3.50;99.90
6164;DHT22;3114;48.362;10.994;2023-02-11T09:50:22;3.70;99.90
6164;DHT22;3114;48.362;10.994;2023-02-11T09:52:54;3.70;99.90
6164;DHT22;3114;48.362;10.994;2023-02-11T09:57:51;4.50;99.90
6164;DHT22;3114;48.362;10.994;2023-02-11T10:00:21;4.40;99.90
6164;DHT22;3114;48.362;10.994;2023-02-11T10:03:10;4.20;99.90
6164;DHT22;3114;48.362;10.994;2023-02-11T10:05:55;4.10;99.90
6164;DHT22;3114;48.362;10.994;2023-02-11T10:08:33;4.40;99.90
6164;DHT22;3114;48.362;10.994;2023-02-11T10:11:10;4.50;99.90
6164;DHT22;3114;48.362;10.994;2023-02-11T10:13:45;4.60;99.90
6164;DHT22;3114;48.362;10.994;2023-02-11T10:19:04;5.10;99.90
6164;DHT22;3114;48.362;10.994;2023-02-11T10:21:48;5.00;99.90
6164;DHT22;3114;48.362;10.994;2023-02-11T10:24:18;5.00;99.90
6164;DHT22;3114;48.362;10.994;2023-02-11T10:26:45;4.90;99.90
6164;DHT22;3114;48.362;10.994;2023-02-11T10:29:21;4.80;99.90
6164;DHT22;3114;48.362;10.994;2023-02-11T10:31:50;4.80;99.90
6164;DHT22;3114;48.362;10.994;2023-02-11T10:34:18;4.70;99.90
6164;DHT22;3114;48.362;10.994;2023-02-11T10:36:47;4.70;99.90
6164;DHT22;3114;48.362;10.994;2023-02-11T10:39:16;4.70;99.90
6164;DHT22;3114;48.362;10.994;2023-02-11T10:41:45;4.50;99.90
6164;DHT22;3114;48.362;10.994;2023-02-11T10:44:21;4.60;99.90
6164;DHT22;3114;48.362;10.994;2023-02-11T10:46:50;4.70;99.90
6164;DHT22;3114;48.362;10.994;2023-02-11T10:49:35;4.80;99.90
6164;DHT22;3114;48.362;10.994;2023-02-11T10:52:16;4.90;99.90
6164;DHT22;3114;48.362;10.994;2023-02-11T10:54:55;5.20;99.90
6164;DHT22;3114;48.362;10.994;2023-02-11T10:57:26;5.40;99.90
6164;DHT22;3114;48.362;10.994;2023-02-11T10:59:58;5.00;99.90
6164;DHT22;3114;48.362;10.994;2023-02-11T11:02:28;4.90;99.90
6164;DHT22;3114;48.362;10.994;2023-02-11T11:04:58;5.00;99.90
6164;DHT22;3114;48.362;10.994;2023-02-11T11:07:28;5.40;99.90
6164;DHT22;3114;48.362;10.994;2023-02-11T11:09:57;5.80;99.90
6164;DHT22;3114;48.362;10.994;2023-02-11T11:12:30;6.00;99.90
6164;DHT22;3114;48.362;10.994;2023-02-11T11:14:58;6.10;99.90
6164;DHT22;3114;48.362;10.994;2023-02-11T12:37:01;10.70;99.90
6164;DHT22;3114;48.362;10.994;2023-02-11T12:39:39;10.70;99.90
6164;DHT22;3114;48.362;10.994;2023-02-11T12:42:23;12.30;99.90
6164;DHT22;3114;48.362;10.994;2023-02-11T12:45:20;12.20;99.90
6164;DHT22;3114;48.362;10.994;2023-02-11T12:48:01;11.30;99.90
6164;DHT22;3114;48.362;10.994;2023-02-11T12:50:36;11.30;99.90
6164;DHT22;3114;48.362;10.994;2023-02-11T12:53:21;11.50;99.90
6164;DHT22;3114;48.362;10.994;2023-02-11T12:55:57;12.00;99.90
6164;DHT22;3114;48.362;10.994;2023-02-11T12:58:30;11.90;99.90
6164;DHT22;3114;48.362;10.994;2023-02-11T13:01:04;13.00;99.90
6164;DHT22;3114;48.362;10.994;2023-02-11T13:03:37;13.90;99.90
6164;DHT22;3114;48.362;10.994;2023-02-11T13:06:08;15.40;99.90
6164;DHT22;3114;48.362;10.994;2023-02-11T13:08:39;14.20;99.90
6164;DHT22;3114;48.362;10.994;2023-02-11T13:11:08;12.70;99.90
6164;DHT22;3114;48.362;10.994;2023-02-11T13:13:46;12.50;99.90
6164;DHT22;3114;48.362;10.994;2023-02-11T13:16:23;12.30;99.90
6164;DHT22;3114;48.362;10.994;2023-02-11T13:18:57;11.60;99.90
6164;DHT22;3114;48.362;10.994;2023-02-11T13:21:35;10.90;99.90
6164;DHT22;3114;48.362;10.994;2023-02-11T13:26:41;11.20;99.90
6164;DHT22;3114;48.362;10.994;2023-02-11T13:29:27;10.80;99.90
6164;DHT22;3114;48.362;10.994;2023-02-11T13:32:06;10.90;99.90
6164;DHT22;3114;48.362;10.994;2023-02-11T13:34:58;10.20;99.90
6164;DHT22;3114;48.362;10.994;2023-02-11T13:37:28;9.90;99.90
6164;DHT22;3114;48.362;10.994;2023-02-11T13:40:00;9.40;99.90
6164;DHT22;3114;48.362;10.994;2023-02-11T13:42:29;10.10;99.90
6164;DHT22;3114;48.362;10.994;2023-02-11T13:44:56;10.80;99.90
6164;DHT22;3114;48.362;10.994;2023-02-11T13:47:30;11.80;99.90
6164;DHT22;3114;48.362;10.994;2023-02-11T13:52:28;11.70;99.90
6164;DHT22;3114;48.362;10.994;2023-02-11T13:54:58;11.40;99.90
6164;DHT22;3114;48.362;10.994;2023-02-11T13:57:33;11.00;99.90
6164;DHT22;3114;48.362;10.994;2023-02-11T14:00:05;10.70;99.90
6164;DHT22;3114;48.362;10.994;2023-02-11T14:02:36;10.00;99.90
6164;DHT22;3114;48.362;10.994;2023-02-11T14:05:25;10.00;99.90
6164;DHT22;3114;48.362;10.994;2023-02-11T14:08:19;10.50;99.90
6164;DHT22;3114;48.362;10.994;2023-02-11T14:11:05;11.10;99.90
6164;DHT22;3114;48.362;10.994;2023-02-11T14:13:36;10.60;99.90
6164;DHT22;3114;48.362;10.994;2023-02-11T14:16:23;10.20;99.90
6164;DHT22;3114;48.362;10.994;2023-02-11T14:19:01;10.40;99.90
6164;DHT22;3114;48.362;10.994;2023-02-11T14:21:36;10.30;99.90
6164;DHT22;3114;48.362;10.994;2023-02-11T14:24:47;9.80;99.90
6164;DHT22;3114;48.362;10.994;2023-02-11T14:27:22;9.90;99.90
6164;DHT22;3114;48.362;10.994;2023-02-11T14:30:11;9.20;99.90
6164;DHT22;3114;48.362;10.994;2023-02-11T14:32:47;9.20;99.90
6164;DHT22;3114;48.362;10.994;2023-02-11T14:35:23;9.40;99.90
6164;DHT22;3114;48.362;10.994;2023-02-11T14:37:58;9.50;99.90
6164;DHT22;3114;48.362;10.994;2023-02-11T14:40:31;9.50;99.90
6164;DHT22;3114;48.362;10.994;2023-02-11T14:43:05;9.50;99.90
6164;DHT22;3114;48.362;10.994;2023-02-11T14:45:37;9.50;99.90
6164;DHT22;3114;48.362;10.994;2023-02-11T14:48:06;9.50;99.90
6164;DHT22;3114;48.362;10.994;2023-02-11T14:50:42;9.60;99.90
6164;DHT22;3114;48.362;10.994;2023-02-11T14:53:15;9.60;99.90
6164;DHT22;3114;48.362;10.994;2023-02-11T14:55:45;9.70;99.90
6164;DHT22;3114;48.362;10.994;2023-02-11T14:58:15;9.60;99.90
6164;DHT22;3114;48.362;10.994;2023-02-11T15:00:52;9.30;99.90
6164;DHT22;3114;48.362;10.994;2023-02-11T15:03:26;8.90;99.90
6164;DHT22;3114;48.362;10.994;2023-02-11T15:05:57;8.90;99.90
6164;DHT22;3114;48.362;10.994;2023-02-11T15:08:25;9.10;99.90
6164;DHT22;3114;48.362;10.994;2023-02-11T15:10:53;9.30;99.90
6164;DHT22;3114;48.362;10.994;2023-02-11T15:13:23;9.50;99.90
6164;DHT22;3114;48.362;10.994;2023-02-11T15:15:59;9.70;99.90
6164;DHT22;3114;48.362;10.994;2023-02-11T15:18:35;9.80;99.90
6164;DHT22;3114;48.362;10.994;2023-02-11T15:21:04;9.80;99.90
6164;DHT22;3114;48.362;10.994;2023-02-11T15:23:32;9.80;99.90
6164;DHT22;3114;48.362;10.994;2023-02-11T15:25:59;9.90;99.90
6164;DHT22;3114;48.362;10.994;2023-02-11T15:28:31;9.90;99.90
6164;DHT22;3114;48.362;10.994;2023-02-11T15:31:00;9.90;99.90
6164;DHT22;3114;48.362;10.994;2023-02-11T15:33:27;9.90;99.90
6164;DHT22;3114;48.362;10.994;2023-02-11T15:35:56;9.90;99.90
6164;DHT22;3114;48.362;10.994;2023-02-11T15:38:25;9.90;99.90
6164;DHT22;3114;48.362;10.994;2023-02-11T15:40:54;9.90;99.90
6164;DHT22;3114;48.362;10.994;2023-02-11T15:43:21;9.90;99.90
6164;DHT22;3114;48.362;10.994;2023-02-11T15:45:56;9.80;99.90
6164;DHT22;3114;48.362;10.994;2023-02-11T15:48:31;9.80;99.90
6164;DHT22;3114;48.362;10.994;2023-02-11T15:51:02;9.70;99.90
6164;DHT22;3114;48.362;10.994;2023-02-11T15:53:36;9.70;99.90
6164;DHT22;3114;48.362;10.994;2023-02-11T15:56:10;9.60;99.90
6164;DHT22;3114;48.362;10.994;2023-02-11T15:58:38;9.50;99.90
6164;DHT22;3114;48.362;10.994;2023-02-11T16:01:07;9.40;99.90
6164;DHT22;3114;48.362;10.994;2023-02-11T16:03:34;9.20;99.90
6164;DHT22;3114;48.362;10.994;2023-02-11T16:06:19;9.00;99.90
6164;DHT22;3114;48.362;10.994;2023-02-11T16:09:00;9.00;99.90
6164;DHT22;3114;48.362;10.994;2023-02-11T16:11:28;9.00;99.90
6164;DHT22;3114;48.362;10.994;2023-02-11T16:13:57;9.00;99.90
6164;DHT22;3114;48.362;10.994;2023-02-11T16:16:27;9.00;99.90
6164;DHT22;3114;48.362;10.994;2023-02-11T16:18:56;8.90;99.90
6164;DHT22;3114;48.362;10.994;2023-02-11T16:21:28;8.80;99.90
6164;DHT22;3114;48.362;10.994;2023-02-11T16:23:59;8.70;99.90
6164;DHT22;3114;48.362;10.994;2023-02-11T16:26:29;8.70;99.90
6164;DHT22;3114;48.362;10.994;2023-02-11T16:29:05;8.70;99.90
6164;DHT22;3114;48.362;10.994;2023-02-11T16:31:34;8.70;99.90
6164;DHT22;3114;48.362;10.994;2023-02-11T16:34:02;8.60;99.90
6164;DHT22;3114;48.362;10.994;2023-02-11T16:36:30;8.50;99.90
6164;DHT22;3114;48.362;10.994;2023-02-11T16:38:59;8.50;99.90
6164;DHT22;3114;48.362;10.994;2023-02-11T16:41:26;8.50;99.90
6164;DHT22;3114;48.362;10.994;2023-02-11T16:43:55;8.50;99.90
6164;DHT22;3114;48.362;10.994;2023-02-11T16:46:23;8.40;99.90
6164;DHT22;3114;48.362;10.994;2023-02-11T16:48:52;8.40;99.90
6164;DHT22;3114;48.362;10.994;2023-02-11T16:51:19;8.50;99.90
6164;DHT22;3114;48.362;10.994;2023-02-11T16:53:46;8.40;99.90
6164;DHT22;3114;48.362;10.994;2023-02-11T16:56:16;8.40;99.90
6164;DHT22;3114;48.362;10.994;2023-02-11T16:58:44;8.40;99.90
6164;DHT22;3114;48.362;10.994;2023-02-11T17:01:11;8.50;99.90
6164;DHT22;3114;48.362;10.994;2023-02-11T17:03:39;8.40;99.90
6164;DHT22;3114;48.362;10.994;2023-02-11T17:06:09;8.30;99.90
6164;DHT22;3114;48.362;10.994;2023-02-11T17:08:37;8.30;99.90
6164;DHT22;3114;48.362;10.994;2023-02-11T17:11:04;8.30;99.90
6164;DHT22;3114;48.362;10.994;2023-02-11T17:13:33;8.30;99.90
6164;DHT22;3114;48.362;10.994;2023-02-11T17:16:01;8.30;99.90
6164;DHT22;3114;48.362;10.994;2023-02-11T17:18:27;8.30;99.90
6164;DHT22;3114;48.362;10.994;2023-02-11T17:20:54;8.30;99.90
6164;DHT22;3114;48.362;10.994;2023-02-11T17:23:21;8.30;99.90
6164;DHT22;3114;48.362;10.994;2023-02-11T17:25:54;8.40;99.90
6164;DHT22;3114;48.362;10.994;2023-02-11T17:28:21;8.20;99.90
6164;DHT22;3114;48.362;10.994;2023-02-11T17:30:49;8.30;99.90
6164;DHT22;3114;48.362;10.994;2023-02-11T17:33:17;8.30;99.90
6164;DHT22;3114;48.362;10.994;2023-02-11T17:35:45;8.30;99.90
6164;DHT22;3114;48.362;10.994;2023-02-11T17:38:12;8.40;99.90
6164;DHT22;3114;48.362;10.994;2023-02-11T17:40:39;8.30;99.90
6164;DHT22;3114;48.362;10.994;2023-02-11T17:43:06;8.20;99.90
6164;DHT22;3114;48.362;10.994;2023-02-11T17:45:33;8.20;99.90
6164;DHT22;3114;48.362;10.994;2023-02-11T17:48:01;8.20;99.90
6164;DHT22;3114;48.362;10.994;2023-02-11T17:50:28;8.20;99.90
6164;DHT22;3114;48.362;10.994;2023-02-11T17:52:55;8.30;99.90
6164;DHT22;3114;48.362;10.994;2023-02-11T17:55:22;8.30;99.90
6164;DHT22;3114;48.362;10.994;2023-02-11T17:57:49;7.60;99.90
6164;DHT22;3114;48.362;10.994;2023-02-11T18:00:17;8.10;99.90
6164;DHT22;3114;48.362;10.994;2023-02-11T18:02:44;8.10;99.90
6164;DHT22;3114;48.362;10.994;2023-02-11T18:05:12;8.10;99.90
6164;DHT22;3114;48.362;10.994;2023-02-11T18:07:39;8.10;99.90
6164;DHT22;3114;48.362;10.994;2023-02-11T18:10:08;8.00;99.90